KCVC

Covington Municipal Airport

Atlanta, Georgia, USA
METAR KCVC 151336Z AUTO 28004KT 10SM CLR 05/01 A3002 RMK AO2
Observed Flight Rules
Dec-15 @ 13:36 UTC (24 minutes ago) Visual Flight Rules
Wind Visibility Clouds
280° at 4 knots 10 miles
  • Clear skies
Temperatures Readings
Current 5°C / 41°F
Dewpoint 1°C / 34°F
Humidity 76%
Altimeter 30.02" Hg
Pressure 1017 hPa
Elevation 247
METAR KCVC 151336Z AUTO 28004KT 10SM CLR 05/01 A3002 RMK AO2
Observed Flight Rules
Dec-15 @ 13:36 UTC
(24 minutes ago)
VFR
Wind Visibility
280° at 4 knots 10 miles
Clouds
  • Clear skies
Temperature Dewpoint
5°C / 41°F 1°C / 34°F
Humidity Altimeter Pressure
76% 30.02" Hg 1017 hPa